createdAt,value
2023-01-01T00:00:34.054Z,45.97
2023-01-01T00:03:02.698Z,45.93
2023-01-01T00:05:31.391Z,45.89
2023-01-01T00:08:04.456Z,45.82
2023-01-01T00:10:35.348Z,45.99
2023-01-01T00:13:03.969Z,45.90
2023-01-01T00:15:32.865Z,45.84
2023-01-01T00:18:01.602Z,45.90
2023-01-01T00:20:34.913Z,45.82
2023-01-01T00:23:04.403Z,45.78
2023-01-01T00:25:34.425Z,45.81
2023-01-01T00:28:03.309Z,45.93
2023-01-01T00:30:31.973Z,45.88
2023-01-01T00:33:00.705Z,45.84
2023-01-01T00:35:29.372Z,45.83
2023-01-01T00:37:58.370Z,45.81
2023-01-01T00:40:26.942Z,45.96
2023-01-01T00:42:56.952Z,45.91
2023-01-01T00:45:25.728Z,46.00
2023-01-01T00:47:55.021Z,45.88
2023-01-01T00:50:24.058Z,45.92
2023-01-01T00:52:53.013Z,45.99
2023-01-01T00:55:21.728Z,45.87
2023-01-01T00:57:50.489Z,45.81
2023-01-01T01:00:20.923Z,45.88
2023-01-01T01:02:49.556Z,45.80
2023-01-01T01:05:18.366Z,45.88
2023-01-01T01:07:47.043Z,45.84
2023-01-01T01:10:15.720Z,45.69
2023-01-01T01:12:44.394Z,45.72
2023-01-01T01:15:13.396Z,45.74
2023-01-01T01:17:43.612Z,45.76
2023-01-01T01:20:12.808Z,45.65
2023-01-01T01:22:41.655Z,45.77
2023-01-01T01:25:11.613Z,45.90
2023-01-01T01:27:40.851Z,45.77
2023-01-01T01:30:10.701Z,45.77
2023-01-01T01:32:39.375Z,45.79
2023-01-01T01:35:10.351Z,45.74
2023-01-01T01:37:39.298Z,45.75
2023-01-01T01:40:09.877Z,45.78
2023-01-01T01:42:38.534Z,45.81
2023-01-01T01:45:09.242Z,45.68
2023-01-01T01:47:39.529Z,45.44
2023-01-01T01:50:13.437Z,45.70
2023-01-01T01:52:51.730Z,45.81
2023-01-01T01:55:20.486Z,45.81
2023-01-01T01:57:49.140Z,45.78
2023-01-01T02:00:19.909Z,45.81
2023-01-01T02:02:52.774Z,45.76
2023-01-01T02:05:23.023Z,45.56
2023-01-01T02:07:52.365Z,45.69
2023-01-01T02:10:21.406Z,45.61
2023-01-01T02:12:50.328Z,45.53
2023-01-01T02:15:19.360Z,45.83
2023-01-01T02:17:55.657Z,45.53
2023-01-01T02:20:39.616Z,45.67
2023-01-01T02:23:32.944Z,45.49
2023-01-01T02:26:39.752Z,45.65
2023-01-01T02:29:25.102Z,45.71
2023-01-01T02:31:59.242Z,45.58
2023-01-01T02:34:31.047Z,45.54
2023-01-01T02:36:59.899Z,45.49
2023-01-01T02:39:30.577Z,45.46
2023-01-01T02:41:59.357Z,45.61
2023-01-01T02:44:29.839Z,45.53
2023-01-01T02:46:58.408Z,45.49
2023-01-01T02:49:27.170Z,45.55
2023-01-01T02:52:03.140Z,45.57
2023-01-01T02:54:35.348Z,45.40
2023-01-01T02:57:09.579Z,45.49
2023-01-01T03:00:07.588Z,45.55
2023-01-01T03:02:46.669Z,45.60
2023-01-01T03:05:21.955Z,45.43
2023-01-01T03:08:00.741Z,45.46
2023-01-01T03:10:34.711Z,45.40
2023-01-01T03:13:06.803Z,45.41
2023-01-01T03:15:40.135Z,45.51
2023-01-01T03:18:11.790Z,45.40
2023-01-01T03:20:42.772Z,45.42
2023-01-01T03:23:15.274Z,45.19
2023-01-01T03:25:47.041Z,45.45
2023-01-01T03:28:18.093Z,45.43
2023-01-01T03:30:48.919Z,45.53
2023-01-01T03:33:19.832Z,45.51
2023-01-01T03:35:51.704Z,45.51
2023-01-01T03:38:23.700Z,45.57
2023-01-01T03:40:55.598Z,45.38
2023-01-01T03:43:35.139Z,45.32
2023-01-01T03:46:05.616Z,45.53
2023-01-01T03:49:02.094Z,45.52
2023-01-01T03:51:44.934Z,45.47
2023-01-01T03:54:17.465Z,45.36
2023-01-01T03:56:48.105Z,45.39
2023-01-01T03:59:19.574Z,45.39
2023-01-01T04:01:51.711Z,45.47
2023-01-01T04:04:20.800Z,45.45
2023-01-01T04:06:49.437Z,45.42
2023-01-01T04:09:22.423Z,45.29
2023-01-01T04:12:04.563Z,45.30
2023-01-01T04:14:36.658Z,45.43
2023-01-01T04:17:07.739Z,45.19
2023-01-01T04:19:36.356Z,45.26
2023-01-01T04:22:05.611Z,45.29
2023-01-01T04:24:34.338Z,45.30
2023-01-01T04:27:03.098Z,45.42
2023-01-01T04:29:31.789Z,45.41
2023-01-01T04:32:00.439Z,45.32
2023-01-01T04:34:30.486Z,45.27
2023-01-01T04:36:59.293Z,45.34
2023-01-01T04:39:27.872Z,45.30
2023-01-01T04:41:56.622Z,45.28
2023-01-01T04:44:25.380Z,45.22
2023-01-01T04:46:59.901Z,45.34
2023-01-01T04:49:30.516Z,45.21
2023-01-01T04:51:59.215Z,45.32
2023-01-01T04:54:27.772Z,45.29
2023-01-01T04:56:56.703Z,45.20
2023-01-01T04:59:25.440Z,45.28
2023-01-01T05:01:54.660Z,45.32
2023-01-01T05:04:23.545Z,45.24
2023-01-01T05:06:53.808Z,45.23
2023-01-01T05:09:22.952Z,45.15
2023-01-01T05:11:51.712Z,45.25
2023-01-01T05:14:20.332Z,45.15
2023-01-01T05:16:49.183Z,45.30
2023-01-01T05:19:17.828Z,45.23
2023-01-01T05:21:46.866Z,45.23
2023-01-01T05:24:17.111Z,45.18
2023-01-01T05:26:46.246Z,45.08
2023-01-01T05:29:16.859Z,45.17
2023-01-01T05:31:46.650Z,45.05
2023-01-01T05:34:15.830Z,45.12
2023-01-01T05:36:44.713Z,45.16
2023-01-01T05:39:13.911Z,45.16
2023-01-01T05:41:43.898Z,45.22
2023-01-01T05:44:12.990Z,45.12
2023-01-01T05:46:41.634Z,45.15
2023-01-01T05:49:12.206Z,45.04
2023-01-01T05:56:36.868Z,45.00
2023-01-01T05:59:07.051Z,45.08
2023-01-01T06:01:43.304Z,45.14
2023-01-01T06:04:14.153Z,45.04
2023-01-01T06:06:43.168Z,45.15
2023-01-01T06:09:11.967Z,45.12
2023-01-01T06:11:41.079Z,45.01
2023-01-01T06:14:11.147Z,45.03
2023-01-01T06:16:39.822Z,45.08
2023-01-01T06:19:08.773Z,44.99
2023-01-01T06:21:37.575Z,45.00
2023-01-01T06:24:08.506Z,45.08
2023-01-01T06:26:37.362Z,45.04
2023-01-01T06:29:06.239Z,45.19
2023-01-01T06:31:40.656Z,45.02
2023-01-01T06:34:10.275Z,44.92
2023-01-01T06:36:39.133Z,45.02
2023-01-01T06:39:07.944Z,44.97
2023-01-01T06:41:36.663Z,45.04
2023-01-01T06:44:05.805Z,44.94
2023-01-01T06:46:37.086Z,45.08
2023-01-01T06:49:07.305Z,44.95
2023-01-01T06:51:38.504Z,44.97
2023-01-01T06:54:07.676Z,44.99
2023-01-01T06:56:36.474Z,45.01
2023-01-01T06:59:05.537Z,45.15
2023-01-01T07:01:36.786Z,45.00
2023-01-01T07:04:06.608Z,45.05
2023-01-01T07:06:35.666Z,45.02
2023-01-01T07:09:04.774Z,44.95
2023-01-01T07:11:33.489Z,44.96
2023-01-01T07:14:02.246Z,45.00
2023-01-01T07:16:31.241Z,44.88
2023-01-01T07:19:01.412Z,44.92
2023-01-01T07:21:32.175Z,44.88
2023-01-01T07:24:01.357Z,44.99
2023-01-01T07:26:30.915Z,44.93
2023-01-01T07:29:06.330Z,45.08
2023-01-01T07:31:36.721Z,44.76
2023-01-01T07:34:06.850Z,44.99
2023-01-01T07:36:35.625Z,44.94
2023-01-01T07:39:04.396Z,44.88
2023-01-01T07:41:33.168Z,44.96
2023-01-01T07:44:01.778Z,45.03
2023-01-01T07:46:30.923Z,45.24
2023-01-01T07:48:59.553Z,44.99
2023-01-01T07:51:29.604Z,44.94
2023-01-01T07:54:03.942Z,45.07
2023-01-01T07:56:35.838Z,45.02
2023-01-01T07:59:04.722Z,45.19
2023-01-01T08:01:36.008Z,44.92
2023-01-01T08:04:04.978Z,44.88
2023-01-01T08:06:34.921Z,45.41
2023-01-01T08:09:03.563Z,45.58
2023-01-01T08:11:32.268Z,45.40
2023-01-01T08:14:00.943Z,45.71
2023-01-01T08:16:29.562Z,45.61
2023-01-01T08:18:58.419Z,45.39
2023-01-01T08:21:27.325Z,45.43
2023-01-01T08:23:57.388Z,45.30
2023-01-01T08:26:30.803Z,45.95
2023-01-01T08:29:00.065Z,45.86
2023-01-01T08:31:29.027Z,45.87
2023-01-01T08:33:58.231Z,45.90
2023-01-01T08:36:27.219Z,45.89
2023-01-01T08:38:57.475Z,45.83
2023-01-01T08:41:26.172Z,45.76
2023-01-01T08:43:55.061Z,45.52
2023-01-01T08:46:23.851Z,45.53
2023-01-01T08:48:52.542Z,45.84
2023-01-01T08:51:21.153Z,45.46
2023-01-01T08:53:51.481Z,45.52
2023-01-01T08:56:21.833Z,45.60
2023-01-01T08:58:50.451Z,45.55
2023-01-01T09:01:21.883Z,45.45
2023-01-01T09:03:50.758Z,45.33
2023-01-01T09:06:19.393Z,45.59
2023-01-01T09:08:48.077Z,45.61
2023-01-01T09:11:24.500Z,45.75
2023-01-01T09:13:53.228Z,45.55
2023-01-01T09:16:22.264Z,45.53
2023-01-01T09:18:50.882Z,45.70
2023-01-01T09:21:19.446Z,45.57
2023-01-01T09:23:48.233Z,45.35
2023-01-01T09:26:16.770Z,45.47
2023-01-01T09:28:46.718Z,45.75
2023-01-01T09:31:15.377Z,45.65
2023-01-01T09:33:44.037Z,45.70
2023-01-01T09:36:17.235Z,45.64
2023-01-01T09:38:50.307Z,45.77
2023-01-01T09:41:22.726Z,45.50
2023-01-01T09:43:58.780Z,45.73
2023-01-01T09:46:31.725Z,45.93
2023-01-01T09:49:04.304Z,45.71
2023-01-01T09:51:39.885Z,45.84
2023-01-01T09:54:15.373Z,45.59
2023-01-01T09:56:43.968Z,45.96
2023-01-01T09:59:14.120Z,45.74
2023-01-01T10:01:47.479Z,45.68
2023-01-01T10:04:47.879Z,46.15
2023-01-01T10:07:21.181Z,46.03
2023-01-01T10:09:55.557Z,46.20
2023-01-01T10:12:28.942Z,45.84
2023-01-01T10:15:03.424Z,46.01
2023-01-01T10:17:36.153Z,46.16
2023-01-01T10:20:07.870Z,46.28
2023-01-01T10:22:38.977Z,46.44
2023-01-01T10:25:16.670Z,46.35
2023-01-01T10:27:51.333Z,46.77
2023-01-01T10:30:25.738Z,46.11
2023-01-01T10:32:55.672Z,46.56
2023-01-01T10:35:31.158Z,46.02
2023-01-01T10:38:00.383Z,45.95
2023-01-01T10:40:30.283Z,45.82
2023-01-01T10:42:59.788Z,45.72
2023-01-01T10:45:33.589Z,45.94
2023-01-01T10:48:13.360Z,45.91
2023-01-01T10:50:52.591Z,45.71
2023-01-01T10:53:27.411Z,45.62
2023-01-01T10:56:05.842Z,45.56
2023-01-01T10:58:44.401Z,45.85
2023-01-01T11:01:20.761Z,45.75
2023-01-01T11:03:58.751Z,45.55
2023-01-01T11:06:28.480Z,45.47
2023-01-01T11:08:58.497Z,45.47
2023-01-01T11:11:31.345Z,45.54
2023-01-01T11:14:01.368Z,45.64
2023-01-01T11:16:31.637Z,45.53
2023-01-01T11:19:07.259Z,45.38
2023-01-01T11:21:36.375Z,45.77
2023-01-01T11:24:20.632Z,45.49
2023-01-01T11:26:54.615Z,45.31
2023-01-01T11:29:27.817Z,45.50
2023-01-01T11:31:58.345Z,45.28
2023-01-01T11:34:33.239Z,45.25
2023-01-01T11:37:16.785Z,45.34
2023-01-01T11:39:46.305Z,44.91
2023-01-01T11:42:19.902Z,45.37
2023-01-01T11:44:50.121Z,45.24
2023-01-01T11:47:26.485Z,45.45
2023-01-01T11:49:57.036Z,45.35
2023-01-01T11:52:34.709Z,45.29
2023-01-01T11:55:10.314Z,45.16
2023-01-01T11:57:42.455Z,45.37
2023-01-01T12:00:15.674Z,45.41
2023-01-01T12:02:49.829Z,45.30
2023-01-01T12:05:22.158Z,45.38
2023-01-01T12:07:50.737Z,45.35
2023-01-01T12:10:23.291Z,45.45
2023-01-01T12:12:54.645Z,45.52
2023-01-01T12:15:27.613Z,45.72
2023-01-01T12:18:03.030Z,45.72
2023-01-01T12:20:33.801Z,45.96
2023-01-01T12:23:03.437Z,46.19
2023-01-01T12:25:37.474Z,46.03
2023-01-01T12:28:16.619Z,45.97
2023-01-01T12:30:50.032Z,45.94
2023-01-01T12:33:38.803Z,46.06
2023-01-01T12:36:23.223Z,46.18
2023-01-01T12:39:50.436Z,45.90
2023-01-01T12:42:21.490Z,45.96
2023-01-01T12:45:05.579Z,45.82
2023-01-01T12:47:40.583Z,46.09
2023-01-01T12:50:18.218Z,45.88
2023-01-01T12:52:55.767Z,45.91
2023-01-01T12:55:43.672Z,46.11
2023-01-01T12:58:14.395Z,45.99
2023-01-01T13:00:44.879Z,46.00
2023-01-01T13:03:19.327Z,45.79
2023-01-01T13:05:51.460Z,45.68
2023-01-01T13:08:20.133Z,46.04
2023-01-01T13:10:50.389Z,45.95
2023-01-01T13:15:51.805Z,45.85
2023-01-01T13:18:23.991Z,46.14
2023-01-01T13:21:08.886Z,46.27
2023-01-01T13:24:04.311Z,46.56
2023-01-01T13:26:42.988Z,47.26
2023-01-01T13:29:37.176Z,47.14
2023-01-01T13:32:11.055Z,46.97
2023-01-01T13:35:03.712Z,46.98
2023-01-01T13:37:51.195Z,47.33
2023-01-01T13:40:51.180Z,47.28
2023-01-01T13:43:22.233Z,46.76
2023-01-01T13:49:16.843Z,47.43
2023-01-01T13:52:10.944Z,47.35
2023-01-01T13:55:30.761Z,44.51
2023-01-01T13:58:21.064Z,46.53
2023-01-01T14:01:07.289Z,46.49
2023-01-01T14:03:41.817Z,45.91
2023-01-01T14:06:12.997Z,44.88
2023-01-01T14:08:43.354Z,44.07
2023-01-01T14:11:25.262Z,43.94
2023-01-01T14:13:54.029Z,43.99
2023-01-01T14:16:22.817Z,44.46
2023-01-01T14:18:53.490Z,43.96
2023-01-01T14:21:23.572Z,43.13
2023-01-01T14:23:54.013Z,42.87
2023-01-01T14:26:25.647Z,43.75
2023-01-01T14:28:55.629Z,43.09
2023-01-01T14:31:25.763Z,45.05
2023-01-01T14:33:54.334Z,44.69
2023-01-01T14:36:24.264Z,44.54
2023-01-01T14:38:54.100Z,44.05
2023-01-01T14:41:28.395Z,43.94
2023-01-01T14:43:58.920Z,44.96
2023-01-01T14:46:28.128Z,44.67
2023-01-01T14:49:01.236Z,44.53
2023-01-01T14:51:31.837Z,44.39
2023-01-01T14:54:01.724Z,44.86
2023-01-01T14:56:35.413Z,45.43
2023-01-01T14:59:08.785Z,45.57
2023-01-01T15:01:37.771Z,45.45
2023-01-01T15:04:18.835Z,45.48
2023-01-01T15:06:47.618Z,44.95
2023-01-01T15:09:16.800Z,45.43
2023-01-01T15:11:46.777Z,44.88
2023-01-01T15:14:34.931Z,45.57
2023-01-01T15:17:04.763Z,45.22
2023-01-01T15:19:35.125Z,45.28
2023-01-01T15:22:03.906Z,45.24
2023-01-01T15:24:33.553Z,45.56
2023-01-01T15:27:05.512Z,45.99
2023-01-01T15:29:35.500Z,45.95
2023-01-01T15:32:05.807Z,45.69
2023-01-01T15:34:36.096Z,46.18
2023-01-01T15:37:11.420Z,45.88
2023-01-01T15:39:51.127Z,46.23
2023-01-01T15:42:34.374Z,46.09
2023-01-01T15:45:22.764Z,46.00
2023-01-01T15:47:51.904Z,45.99
2023-01-01T15:50:25.482Z,45.87
2023-01-01T15:52:56.186Z,46.16
2023-01-01T15:55:24.852Z,46.39
2023-01-01T15:57:54.951Z,46.20
2023-01-01T16:00:24.883Z,46.49
2023-01-01T16:02:54.180Z,46.29
2023-01-01T16:05:25.636Z,46.33
2023-01-01T16:08:00.658Z,46.32
2023-01-01T16:10:29.418Z,46.31
2023-01-01T16:13:02.829Z,46.49
2023-01-01T16:15:33.424Z,46.36
2023-01-01T16:18:03.953Z,46.29
2023-01-01T16:20:32.565Z,46.07
2023-01-01T16:23:01.179Z,46.36
2023-01-01T16:25:29.960Z,46.16
2023-01-01T16:27:59.934Z,46.19
2023-01-01T16:30:28.588Z,46.38
2023-01-01T16:32:57.324Z,46.08
2023-01-01T16:35:25.925Z,46.26
2023-01-01T16:37:54.518Z,46.62
2023-01-01T16:40:23.235Z,46.41
2023-01-01T16:42:51.813Z,46.24
2023-01-01T16:45:21.831Z,46.65
2023-01-01T16:47:50.440Z,46.46
2023-01-01T16:50:19.305Z,46.64
2023-01-01T16:52:47.846Z,46.56
2023-01-01T16:55:16.783Z,46.70
2023-01-01T16:57:45.383Z,46.46
2023-01-01T17:00:15.426Z,46.47
2023-01-01T17:02:45.609Z,46.19
2023-01-01T17:05:14.590Z,46.11
2023-01-01T17:07:43.174Z,46.21
2023-01-01T17:10:11.882Z,46.16
2023-01-01T17:12:40.530Z,46.36
2023-01-01T17:15:10.355Z,46.75
2023-01-01T17:17:39.009Z,46.20
2023-01-01T17:20:10.119Z,46.15
2023-01-01T17:22:38.756Z,46.56
2023-01-01T17:25:09.081Z,47.13
2023-01-01T17:27:37.768Z,48.30
2023-01-01T17:30:08.191Z,49.07
2023-01-01T17:32:39.796Z,47.33
2023-01-01T17:35:11.065Z,48.18
2023-01-01T17:37:39.652Z,49.20
2023-01-01T17:40:10.066Z,49.16
2023-01-01T17:42:38.693Z,49.02
2023-01-01T17:45:09.735Z,49.14
2023-01-01T17:47:38.596Z,49.01
2023-01-01T17:50:10.476Z,49.24
2023-01-01T17:52:39.263Z,49.15
2023-01-01T17:55:09.279Z,49.49
2023-01-01T17:57:38.143Z,49.30
2023-01-01T18:00:10.637Z,49.62
2023-01-01T18:02:39.466Z,49.34
2023-01-01T18:05:10.372Z,48.33
2023-01-01T18:07:39.177Z,49.23
2023-01-01T18:10:09.132Z,48.99
2023-01-01T18:12:37.996Z,48.49
2023-01-01T18:15:07.943Z,48.84
2023-01-01T18:17:36.720Z,49.22
2023-01-01T18:20:06.577Z,49.18
2023-01-01T18:22:42.946Z,49.27
2023-01-01T18:25:12.156Z,49.65
2023-01-01T18:27:41.134Z,49.75
2023-01-01T18:30:10.858Z,49.73
2023-01-01T18:32:39.698Z,49.11
2023-01-01T18:35:09.993Z,49.33
2023-01-01T18:37:39.968Z,50.49
2023-01-01T18:40:13.284Z,50.60
2023-01-01T18:42:46.177Z,50.40
2023-01-01T18:45:19.639Z,50.51
2023-01-01T18:47:48.415Z,50.22
2023-01-01T18:50:23.825Z,50.51
2023-01-01T18:52:56.575Z,50.41
2023-01-01T18:55:28.169Z,50.38
2023-01-01T18:58:00.312Z,49.88
2023-01-01T19:00:31.292Z,50.03
2023-01-01T19:03:01.061Z,49.81
2023-01-01T19:05:31.151Z,50.20
2023-01-01T19:08:11.852Z,50.57
2023-01-01T19:10:41.951Z,50.36
2023-01-01T19:13:17.246Z,50.33
2023-01-01T19:15:47.456Z,50.26
2023-01-01T19:18:18.077Z,50.32
2023-01-01T19:20:47.154Z,50.42
2023-01-01T19:23:20.925Z,50.27
2023-01-01T19:25:49.951Z,49.54
2023-01-01T19:28:37.220Z,50.21
2023-01-01T19:31:09.034Z,49.88
2023-01-01T19:33:37.688Z,49.26
2023-01-01T19:36:07.200Z,50.06
2023-01-01T19:38:37.259Z,50.16
2023-01-01T19:41:06.436Z,50.44
2023-01-01T19:43:35.043Z,50.42
2023-01-01T19:46:03.996Z,50.47
2023-01-01T19:48:32.767Z,50.39
2023-01-01T19:51:01.447Z,50.40
2023-01-01T19:53:30.160Z,50.20
2023-01-01T19:56:00.550Z,50.27
2023-01-01T19:58:29.150Z,50.21
2023-01-01T20:00:57.874Z,50.05
2023-01-01T20:03:52.620Z,50.20
2023-01-01T20:06:15.627Z,50.20
2023-01-01T20:08:44.554Z,50.11
2023-01-01T20:11:15.587Z,50.20
2023-01-01T20:13:44.306Z,50.08
2023-01-01T20:16:13.202Z,50.02
2023-01-01T20:18:42.034Z,49.93
2023-01-01T20:21:28.308Z,50.12
2023-01-01T20:23:57.037Z,49.91
2023-01-01T20:26:27.516Z,49.97
2023-01-01T20:29:13.458Z,49.94
2023-01-01T20:31:43.047Z,49.83
2023-01-01T20:34:11.807Z,50.00
2023-01-01T20:36:57.962Z,49.93
2023-01-01T20:39:26.965Z,49.91
2023-01-01T20:41:57.441Z,49.24
2023-01-01T20:44:26.095Z,49.82
2023-01-01T20:46:55.055Z,49.99
2023-01-01T20:49:23.919Z,49.55
2023-01-01T20:51:53.650Z,49.39
2023-01-01T20:54:22.944Z,49.93
2023-01-01T20:56:51.644Z,50.04
2023-01-01T20:59:38.920Z,49.90
2023-01-01T21:02:08.575Z,49.92
2023-01-01T21:04:39.048Z,49.72
2023-01-01T21:07:09.423Z,49.94
2023-01-01T21:09:38.195Z,49.98
2023-01-01T21:12:07.489Z,49.83
2023-01-01T21:14:38.180Z,49.84
2023-01-01T21:17:19.486Z,49.87
2023-01-01T21:19:48.593Z,49.81
2023-01-01T21:22:17.346Z,49.83
2023-01-01T21:24:51.766Z,49.72
2023-01-01T21:27:25.726Z,49.76
2023-01-01T21:29:57.921Z,49.74
2023-01-01T21:32:28.912Z,49.61
2023-01-01T21:34:57.750Z,49.67
2023-01-01T21:37:45.359Z,49.67
2023-01-01T21:40:39.178Z,49.88
2023-01-01T21:43:35.831Z,49.76
2023-01-01T21:46:19.416Z,49.62
2023-01-01T21:48:55.621Z,49.60
2023-01-01T21:51:25.826Z,49.68
2023-01-01T21:53:55.303Z,49.85
2023-01-01T21:56:29.936Z,50.02
2023-01-01T21:59:21.517Z,49.77
2023-01-01T22:01:51.786Z,49.84
2023-01-01T22:04:22.316Z,49.76
2023-01-01T22:06:52.433Z,49.92
2023-01-01T22:09:23.904Z,49.48
2023-01-01T22:11:54.380Z,49.52
2023-01-01T22:14:26.691Z,49.61
2023-01-01T22:16:57.082Z,49.77
2023-01-01T22:19:25.936Z,49.82
2023-01-01T22:21:54.649Z,49.85
2023-01-01T22:24:33.604Z,49.89
2023-01-01T22:27:20.864Z,50.05
2023-01-01T22:29:49.847Z,50.22
2023-01-01T22:32:24.292Z,50.45
2023-01-01T22:34:53.856Z,50.25
2023-01-01T22:37:24.776Z,50.32
2023-01-01T22:39:53.469Z,50.11
2023-01-01T22:42:25.121Z,50.08
2023-01-01T22:44:58.639Z,50.22
2023-01-01T22:47:35.972Z,49.82
2023-01-01T22:50:05.801Z,49.70
2023-01-01T22:52:34.591Z,49.92
2023-01-01T22:55:03.801Z,49.96
2023-01-01T22:57:32.576Z,49.99
2023-01-01T23:00:01.310Z,49.94
2023-01-01T23:02:31.671Z,49.98
2023-01-01T23:05:00.957Z,49.84
2023-01-01T23:07:29.707Z,49.73
2023-01-01T23:09:58.446Z,49.89
2023-01-01T23:12:27.143Z,49.74
2023-01-01T23:15:13.399Z,49.78
2023-01-01T23:17:43.658Z,49.71
2023-01-01T23:20:13.210Z,49.59
2023-01-01T23:22:45.040Z,49.69
2023-01-01T23:25:16.069Z,49.65
2023-01-01T23:27:45.259Z,49.32
2023-01-01T23:30:15.085Z,49.63
2023-01-01T23:32:45.103Z,49.77
2023-01-01T23:35:13.996Z,49.72
2023-01-01T23:37:42.681Z,49.54
2023-01-01T23:40:12.974Z,49.74
2023-01-01T23:42:42.206Z,49.72
2023-01-01T23:45:11.647Z,49.61
2023-01-01T23:47:40.530Z,49.65
2023-01-01T23:50:11.188Z,49.53
2023-01-01T23:52:40.039Z,49.39
2023-01-01T23:55:10.168Z,49.43
2023-01-01T23:57:38.929Z,49.59
